createdAt,value
2023-03-20T00:00:01.313Z,4.30
2023-03-20T00:02:30.386Z,4.65
2023-03-20T00:04:59.448Z,4.75
2023-03-20T00:07:30.285Z,4.07
2023-03-20T00:09:59.437Z,4.88
2023-03-20T00:12:28.479Z,4.95
2023-03-20T00:14:57.530Z,4.80
2023-03-20T00:17:26.563Z,4.88
2023-03-20T00:19:55.515Z,4.75
2023-03-20T00:22:24.563Z,4.43
2023-03-20T00:24:55.521Z,4.38
2023-03-20T00:27:24.470Z,3.92
2023-03-20T00:29:53.415Z,3.70
2023-03-20T00:32:22.362Z,3.88
2023-03-20T00:34:51.292Z,4.40
2023-03-20T00:37:20.314Z,4.25
2023-03-20T00:39:49.723Z,4.20
2023-03-20T00:42:26.811Z,4.43
2023-03-20T00:45:00.419Z,4.53
2023-03-20T00:47:31.077Z,3.80
2023-03-20T00:50:00.525Z,4.50
2023-03-20T00:52:29.658Z,4.13
2023-03-20T00:54:58.678Z,3.95
2023-03-20T00:57:34.338Z,4.13
2023-03-20T01:00:08.066Z,4.45
2023-03-20T01:02:37.242Z,4.20
2023-03-20T01:05:07.635Z,4.03
2023-03-20T01:07:36.879Z,4.00
2023-03-20T01:10:06.693Z,4.20
2023-03-20T01:12:37.299Z,3.95
2023-03-20T01:15:17.831Z,4.32
2023-03-20T01:17:47.611Z,4.45
2023-03-20T01:20:18.421Z,4.63
2023-03-20T01:22:47.559Z,4.55
2023-03-20T01:25:17.149Z,4.05
2023-03-20T01:27:52.126Z,4.00
2023-03-20T01:30:23.751Z,3.90
2023-03-20T01:32:53.389Z,4.28
2023-03-20T01:35:23.664Z,4.22
2023-03-20T01:37:53.192Z,4.30
2023-03-20T01:40:36.266Z,4.43
2023-03-20T01:43:15.429Z,3.97
2023-03-20T01:45:52.191Z,4.00
2023-03-20T01:48:23.148Z,4.55
2023-03-20T01:50:52.207Z,4.05
2023-03-20T01:53:24.640Z,4.00
2023-03-20T01:55:57.058Z,4.05
2023-03-20T01:58:32.494Z,4.13
2023-03-20T02:01:01.949Z,3.88
2023-03-20T02:03:31.559Z,4.20
2023-03-20T02:06:01.188Z,4.35
2023-03-20T02:08:31.610Z,4.43
2023-03-20T02:11:02.549Z,4.07
2023-03-20T02:13:33.937Z,4.50
2023-03-20T02:16:09.004Z,4.20
2023-03-20T02:18:39.902Z,4.50
2023-03-20T02:21:57.525Z,4.25
2023-03-20T02:24:54.435Z,4.43
2023-03-20T02:27:32.170Z,4.53
2023-03-20T02:30:44.206Z,4.30
2023-03-20T02:33:54.636Z,4.60
2023-03-20T02:37:13.608Z,4.63
2023-03-20T02:40:00.344Z,4.93
2023-03-20T02:45:11.601Z,4.53
2023-03-20T02:47:48.337Z,4.90
2023-03-20T02:50:24.975Z,4.47
2023-03-20T02:53:04.471Z,4.75
2023-03-20T02:55:42.572Z,4.53
2023-03-20T02:58:16.506Z,4.30
2023-03-20T03:00:52.849Z,4.18
2023-03-20T03:03:25.330Z,4.07
2023-03-20T03:05:59.986Z,4.03
2023-03-20T03:08:36.359Z,4.50
2023-03-20T03:11:09.538Z,4.32
2023-03-20T03:13:43.902Z,3.70
2023-03-20T03:16:17.271Z,4.22
2023-03-20T03:18:47.848Z,4.32
2023-03-20T03:21:19.318Z,4.40
2023-03-20T03:23:49.846Z,4.47
2023-03-20T03:26:26.063Z,4.30
2023-03-20T03:31:27.577Z,4.40
2023-03-20T03:33:59.068Z,4.38
2023-03-20T03:36:37.948Z,4.60
2023-03-20T03:39:14.013Z,4.40
2023-03-20T03:41:48.872Z,4.88
2023-03-20T03:44:24.904Z,4.55
2023-03-20T03:46:58.462Z,4.30
2023-03-20T03:49:32.213Z,5.15
2023-03-20T03:52:04.669Z,5.28
2023-03-20T03:54:39.446Z,4.97
2023-03-20T03:57:14.853Z,5.22
2023-03-20T03:59:47.671Z,5.20
2023-03-20T04:02:20.567Z,5.18
2023-03-20T04:04:52.997Z,5.25
2023-03-20T04:07:22.519Z,5.28
2023-03-20T04:09:51.804Z,5.35
2023-03-20T04:12:40.271Z,5.72
2023-03-20T04:15:10.434Z,5.25
2023-03-20T04:17:39.576Z,5.82
2023-03-20T04:20:10.138Z,5.68
2023-03-20T04:22:39.205Z,5.82
2023-03-20T04:25:10.379Z,5.93
2023-03-20T04:27:40.959Z,5.72
2023-03-20T04:30:11.136Z,5.97
2023-03-20T04:32:40.234Z,5.38
2023-03-20T04:35:14.375Z,5.57
2023-03-20T04:37:43.881Z,5.57
2023-03-20T04:40:14.301Z,6.07
2023-03-20T04:42:45.167Z,6.25
2023-03-20T04:45:14.120Z,5.72
2023-03-20T04:47:43.092Z,6.10
2023-03-20T04:50:14.803Z,5.90
2023-03-20T04:52:43.809Z,5.60
2023-03-20T04:55:12.776Z,5.80
2023-03-20T04:57:41.857Z,5.55
2023-03-20T05:00:13.871Z,6.18
2023-03-20T05:02:43.083Z,5.97
2023-03-20T05:05:12.417Z,6.07
2023-03-20T05:07:41.490Z,5.85
2023-03-20T05:10:11.858Z,5.97
2023-03-20T05:12:40.873Z,6.00
2023-03-20T05:15:12.473Z,6.40
2023-03-20T05:17:41.871Z,6.15
2023-03-20T05:20:12.142Z,6.00
2023-03-20T05:22:41.403Z,5.32
2023-03-20T05:25:10.950Z,5.78
2023-03-20T05:27:40.477Z,5.10
2023-03-20T05:30:12.352Z,5.25
2023-03-20T05:32:42.827Z,5.10
2023-03-20T05:35:13.082Z,5.00
2023-03-20T05:37:42.326Z,4.65
2023-03-20T05:40:15.186Z,4.43
2023-03-20T05:42:44.288Z,4.90
2023-03-20T05:45:16.464Z,4.45
2023-03-20T05:47:45.682Z,4.32
2023-03-20T05:50:14.933Z,4.75
2023-03-20T05:52:43.918Z,4.35
2023-03-20T05:55:13.156Z,4.40
2023-03-20T05:57:42.231Z,4.43
2023-03-20T06:00:14.320Z,4.50
2023-03-20T06:02:44.892Z,4.47
2023-03-20T06:05:15.132Z,4.65
2023-03-20T06:07:44.356Z,5.10
2023-03-20T06:10:13.967Z,5.10
2023-03-20T06:12:43.035Z,5.13
2023-03-20T06:15:14.486Z,5.35
2023-03-20T06:17:43.459Z,5.78
2023-03-20T06:20:13.400Z,5.40
2023-03-20T06:22:42.854Z,6.25
2023-03-20T06:25:12.273Z,5.90
2023-03-20T06:27:41.322Z,5.88
2023-03-20T06:30:12.379Z,6.15
2023-03-20T06:32:43.615Z,6.22
2023-03-20T06:35:13.904Z,6.32
2023-03-20T06:37:43.013Z,6.32
2023-03-20T06:40:12.963Z,5.90
2023-03-20T06:42:41.959Z,5.80
2023-03-20T06:45:12.100Z,5.78
2023-03-20T06:47:42.987Z,5.68
2023-03-20T06:50:12.998Z,5.68
2023-03-20T06:52:42.535Z,5.55
2023-03-20T06:55:11.783Z,5.53
2023-03-20T06:57:40.833Z,5.82
2023-03-20T07:00:11.179Z,5.30
2023-03-20T07:02:41.818Z,5.00
2023-03-20T07:05:11.452Z,5.35
2023-03-20T07:07:40.503Z,5.13
2023-03-20T07:10:10.766Z,4.82
2023-03-20T07:12:39.818Z,4.60
2023-03-20T07:15:09.514Z,5.13
2023-03-20T07:17:38.482Z,4.95
2023-03-20T07:20:10.874Z,4.70
2023-03-20T07:22:40.632Z,4.85
2023-03-20T07:25:10.784Z,4.63
2023-03-20T07:27:39.857Z,4.63
2023-03-20T07:30:10.383Z,3.95
2023-03-20T07:32:40.499Z,3.85
2023-03-20T07:35:11.471Z,3.83
2023-03-20T07:37:43.573Z,4.10
2023-03-20T07:40:13.661Z,3.63
2023-03-20T07:42:42.697Z,3.80
2023-03-20T07:45:12.321Z,3.50
2023-03-20T07:47:41.374Z,3.63
2023-03-20T07:50:12.999Z,3.50
2023-03-20T07:52:42.051Z,3.65
2023-03-20T07:55:12.147Z,3.95
2023-03-20T07:57:41.346Z,4.20
2023-03-20T08:00:12.375Z,4.15
2023-03-20T08:02:41.360Z,4.22
2023-03-20T08:05:13.000Z,4.30
2023-03-20T08:07:42.146Z,4.10
2023-03-20T08:10:12.237Z,4.38
2023-03-20T08:12:41.232Z,3.83
2023-03-20T08:15:11.420Z,4.10
2023-03-20T08:17:43.256Z,4.15
2023-03-20T08:20:17.107Z,4.35
2023-03-20T08:22:46.698Z,4.30
2023-03-20T08:25:15.646Z,4.47
2023-03-20T08:27:44.978Z,4.38
2023-03-20T08:30:15.419Z,4.75
2023-03-20T08:32:44.558Z,5.03
2023-03-20T08:35:31.890Z,4.78
2023-03-20T08:38:01.685Z,4.75
2023-03-20T08:40:30.974Z,4.50
2023-03-20T08:43:00.328Z,5.00
2023-03-20T08:45:29.359Z,4.43
2023-03-20T08:47:58.285Z,4.50
2023-03-20T08:50:28.921Z,4.40
2023-03-20T08:52:58.096Z,4.40
2023-03-20T08:55:27.442Z,4.70
2023-03-20T08:57:58.137Z,4.78
2023-03-20T09:00:28.403Z,5.07
2023-03-20T09:02:57.390Z,4.45
2023-03-20T09:05:28.251Z,4.80
2023-03-20T09:07:57.262Z,4.57
2023-03-20T09:10:26.277Z,4.90
2023-03-20T09:12:56.226Z,5.03
2023-03-20T09:15:25.144Z,5.28
2023-03-20T09:17:54.144Z,4.35
2023-03-20T09:20:23.437Z,5.32
2023-03-20T09:22:54.141Z,4.93
2023-03-20T09:25:23.118Z,4.80
2023-03-20T09:27:56.137Z,5.35
2023-03-20T09:30:25.837Z,4.72
2023-03-20T09:32:54.848Z,4.80
2023-03-20T09:35:23.893Z,4.47
2023-03-20T09:37:55.127Z,4.43
2023-03-20T09:40:28.774Z,4.20
2023-03-20T09:43:08.595Z,4.57
2023-03-20T09:45:50.408Z,4.45
2023-03-20T09:48:25.393Z,4.20
2023-03-20T09:51:02.590Z,4.75
2023-03-20T09:53:39.105Z,4.78
2023-03-20T09:56:15.892Z,5.05
2023-03-20T09:58:49.880Z,4.70
2023-03-20T10:01:21.877Z,5.18
2023-03-20T10:03:54.754Z,5.20
2023-03-20T10:06:23.868Z,4.88
2023-03-20T10:08:56.239Z,4.90
2023-03-20T10:11:44.732Z,4.70
2023-03-20T10:14:23.967Z,5.00
2023-03-20T10:17:05.595Z,4.85
2023-03-20T10:19:43.808Z,5.10
2023-03-20T10:22:23.004Z,4.90
2023-03-20T10:24:59.045Z,5.30
2023-03-20T10:27:33.479Z,4.88
2023-03-20T10:30:19.901Z,5.00
2023-03-20T10:32:58.392Z,5.25
2023-03-20T10:35:34.986Z,5.35
2023-03-20T10:38:24.595Z,4.85
2023-03-20T10:40:58.825Z,5.05
2023-03-20T10:43:31.826Z,4.80
2023-03-20T10:46:05.361Z,4.80
2023-03-20T10:48:37.375Z,4.82
2023-03-20T10:51:11.263Z,5.03
2023-03-20T10:53:48.146Z,4.80
2023-03-20T10:56:28.376Z,4.90
2023-03-20T10:59:05.002Z,5.30
2023-03-20T11:01:35.734Z,5.25
2023-03-20T11:04:04.960Z,5.38
2023-03-20T11:06:40.239Z,5.40
2023-03-20T11:09:23.778Z,5.40
2023-03-20T11:11:59.053Z,5.53
2023-03-20T11:14:33.820Z,5.10
2023-03-20T11:17:04.767Z,5.20
2023-03-20T11:19:36.084Z,5.80
2023-03-20T11:22:11.086Z,5.95
2023-03-20T11:24:44.025Z,5.35
2023-03-20T11:27:18.955Z,5.68
2023-03-20T11:29:50.874Z,5.78
2023-03-20T11:32:28.729Z,5.78
2023-03-20T11:34:58.534Z,6.22
2023-03-20T11:37:30.326Z,6.13
2023-03-20T11:40:01.169Z,5.95
2023-03-20T11:42:32.084Z,5.95
2023-03-20T11:45:02.790Z,6.72
2023-03-20T11:47:35.388Z,6.43
2023-03-20T11:50:06.488Z,7.18
2023-03-20T11:52:37.416Z,7.25
2023-03-20T11:55:24.568Z,7.75
2023-03-20T11:57:59.623Z,8.75
2023-03-20T12:00:31.563Z,8.13
2023-03-20T12:03:00.654Z,8.65
2023-03-20T12:05:32.815Z,8.65
2023-03-20T12:08:06.104Z,8.30
2023-03-20T12:10:40.338Z,8.50
2023-03-20T12:13:18.231Z,9.23
2023-03-20T12:15:50.909Z,9.68
2023-03-20T12:18:26.382Z,9.68
2023-03-20T12:21:08.469Z,8.90
2023-03-20T12:23:43.299Z,9.23
2023-03-20T12:26:15.465Z,9.02
2023-03-20T12:28:53.304Z,9.07
2023-03-20T12:31:27.378Z,9.25
2023-03-20T12:34:02.219Z,9.93
2023-03-20T12:36:35.091Z,9.80
2023-03-20T12:39:06.705Z,9.95
2023-03-20T12:41:43.876Z,9.77
2023-03-20T12:44:39.537Z,9.18
2023-03-20T12:47:19.579Z,9.57
2023-03-20T12:49:59.133Z,9.80
2023-03-20T12:52:39.792Z,8.90
2023-03-20T12:55:37.174Z,9.30
2023-03-20T12:58:19.945Z,9.60
2023-03-20T13:01:00.239Z,9.30
2023-03-20T13:03:51.347Z,9.30
2023-03-20T13:06:28.654Z,9.55
2023-03-20T13:09:27.467Z,9.40
2023-03-20T13:12:05.880Z,9.52
2023-03-20T13:14:43.004Z,10.27
2023-03-20T13:17:21.711Z,9.95
2023-03-20T13:20:03.788Z,9.65
2023-03-20T13:22:39.048Z,10.25
2023-03-20T13:25:20.548Z,10.52
2023-03-20T13:27:55.723Z,10.57
2023-03-20T13:30:31.532Z,10.90
2023-03-20T13:33:18.036Z,10.13
2023-03-20T13:35:57.069Z,10.00
2023-03-20T13:38:29.794Z,10.20
2023-03-20T13:41:03.444Z,10.10
2023-03-20T13:43:37.392Z,10.52
2023-03-20T13:46:11.118Z,10.65
2023-03-20T13:48:42.679Z,10.38
2023-03-20T13:51:28.603Z,11.68
2023-03-20T13:54:08.210Z,10.87
2023-03-20T13:56:48.200Z,11.65
2023-03-20T13:59:58.217Z,11.50
2023-03-20T14:02:47.282Z,10.93
2023-03-20T14:05:20.455Z,12.38
2023-03-20T14:07:50.308Z,11.52
2023-03-20T14:10:39.798Z,12.05
2023-03-20T14:13:15.270Z,11.77
2023-03-20T14:15:52.976Z,12.05
2023-03-20T14:18:24.663Z,11.60
2023-03-20T14:20:58.855Z,11.70
2023-03-20T14:23:38.061Z,12.63
2023-03-20T14:26:11.041Z,11.48
2023-03-20T14:28:53.420Z,12.32
2023-03-20T14:31:33.603Z,12.23
2023-03-20T14:34:15.472Z,13.27
2023-03-20T14:36:57.054Z,13.45
2023-03-20T14:39:40.717Z,12.95
2023-03-20T14:42:32.535Z,13.48
2023-03-20T14:45:27.308Z,13.00
2023-03-20T14:48:02.742Z,12.50
2023-03-20T14:50:35.370Z,11.97
2023-03-20T14:53:17.422Z,11.73
2023-03-20T14:55:53.649Z,12.25
2023-03-20T14:58:57.088Z,11.00
2023-03-20T15:01:29.348Z,9.45
2023-03-20T15:04:02.620Z,9.02
2023-03-20T15:06:32.211Z,8.73
2023-03-20T15:09:09.241Z,8.65
2023-03-20T15:11:38.925Z,8.63
2023-03-20T15:14:10.044Z,9.35
2023-03-20T15:16:39.863Z,7.78
2023-03-20T15:19:18.774Z,7.82
2023-03-20T15:21:49.185Z,7.93
2023-03-20T15:24:25.322Z,8.38
2023-03-20T15:26:55.713Z,9.07
2023-03-20T15:29:25.826Z,8.60
2023-03-20T15:32:12.736Z,8.23
2023-03-20T15:34:43.313Z,9.00
2023-03-20T15:37:17.089Z,9.48
2023-03-20T15:39:49.301Z,9.15
2023-03-20T15:42:22.229Z,8.65
2023-03-20T15:44:53.288Z,9.30
2023-03-20T15:47:23.992Z,9.95
2023-03-20T15:49:55.397Z,10.10
2023-03-20T15:52:31.607Z,10.32
2023-03-20T15:55:06.640Z,9.48
2023-03-20T15:57:41.020Z,9.02
2023-03-20T16:00:16.293Z,9.30
2023-03-20T16:02:48.599Z,8.55
2023-03-20T16:05:19.031Z,9.55
2023-03-20T16:07:48.553Z,8.85
2023-03-20T16:10:26.598Z,8.23
2023-03-20T16:12:56.140Z,8.55
2023-03-20T16:15:28.495Z,6.03
2023-03-20T16:17:59.601Z,5.18
2023-03-20T16:20:31.999Z,4.28
2023-03-20T16:23:04.928Z,3.90
2023-03-20T16:25:36.838Z,3.55
2023-03-20T16:28:10.052Z,4.18
2023-03-20T16:30:39.362Z,4.00
2023-03-20T16:33:14.658Z,3.63
2023-03-20T16:35:46.508Z,3.50
2023-03-20T16:38:26.030Z,3.30
2023-03-20T16:41:16.860Z,3.30
2023-03-20T16:43:50.416Z,2.45
2023-03-20T16:46:22.470Z,2.20
2023-03-20T16:48:53.633Z,2.30
2023-03-20T16:51:26.345Z,2.95
2023-03-20T16:53:57.783Z,2.70
2023-03-20T16:56:30.630Z,3.65
2023-03-20T16:58:59.717Z,4.00
2023-03-20T17:01:30.117Z,3.92
2023-03-20T17:04:12.518Z,4.55
2023-03-20T17:06:47.858Z,4.22
2023-03-20T17:09:21.800Z,4.03
2023-03-20T17:11:58.290Z,4.30
2023-03-20T17:14:27.908Z,4.68
2023-03-20T17:17:01.077Z,4.85
2023-03-20T17:19:33.203Z,5.55
2023-03-20T17:22:06.012Z,5.60
2023-03-20T17:24:35.093Z,4.90
2023-03-20T17:27:05.896Z,5.15
2023-03-20T17:29:34.896Z,5.38
2023-03-20T17:32:04.213Z,5.10
2023-03-20T17:34:33.373Z,5.40
2023-03-20T17:37:04.225Z,5.07
2023-03-20T17:39:33.203Z,4.75
2023-03-20T17:42:02.348Z,4.60
2023-03-20T17:44:33.135Z,4.38
2023-03-20T17:47:03.330Z,4.40
2023-03-20T17:49:32.983Z,3.67
2023-03-20T17:52:01.911Z,3.60
2023-03-20T17:54:30.869Z,3.33
2023-03-20T17:56:59.985Z,3.60
2023-03-20T17:59:31.879Z,3.80
2023-03-20T18:02:03.054Z,3.10
2023-03-20T18:04:32.044Z,3.00
2023-03-20T18:07:02.569Z,2.80
2023-03-20T18:09:31.753Z,3.00
2023-03-20T18:12:00.719Z,3.10
2023-03-20T18:14:29.735Z,3.15
2023-03-20T18:16:58.778Z,3.15
2023-03-20T18:19:30.689Z,3.25
2023-03-20T18:22:00.537Z,3.60
2023-03-20T18:24:29.507Z,3.38
2023-03-20T18:26:59.908Z,3.17
2023-03-20T18:29:28.922Z,4.05
2023-03-20T18:31:57.926Z,4.57
2023-03-20T18:34:28.558Z,4.95
2023-03-20T18:36:57.739Z,4.78
2023-03-20T18:39:28.095Z,5.10
2023-03-20T18:41:57.135Z,4.90
2023-03-20T18:44:26.114Z,4.80
2023-03-20T18:46:55.111Z,4.10
2023-03-20T18:49:24.140Z,4.45
2023-03-20T18:51:54.984Z,3.90
2023-03-20T18:54:23.943Z,4.10
2023-03-20T18:56:52.923Z,4.25
2023-03-20T18:59:21.939Z,3.90
2023-03-20T19:01:52.504Z,7.35
2023-03-20T19:04:23.862Z,5.57
2023-03-20T19:06:54.557Z,5.32
2023-03-20T19:09:23.554Z,4.20
2023-03-20T19:11:52.663Z,4.38
2023-03-20T19:14:21.679Z,4.47
2023-03-20T19:16:51.893Z,4.57
2023-03-20T19:19:20.869Z,4.90
2023-03-20T19:21:49.847Z,4.40
2023-03-20T19:24:22.374Z,5.18
2023-03-20T19:26:51.613Z,5.00
2023-03-20T19:29:20.589Z,4.55
2023-03-20T19:31:49.658Z,4.53
2023-03-20T19:34:54.950Z,4.40
2023-03-20T19:37:08.024Z,3.80
2023-03-20T19:39:38.678Z,4.30
2023-03-20T19:42:30.388Z,4.30
2023-03-20T19:44:56.912Z,4.40
2023-03-20T19:47:25.937Z,4.05
2023-03-20T19:49:54.973Z,4.28
2023-03-20T19:52:32.534Z,4.05
2023-03-20T19:55:03.990Z,3.50
2023-03-20T19:57:32.970Z,3.55
2023-03-20T20:00:48.782Z,3.08
2023-03-20T20:02:51.613Z,3.88
2023-03-20T20:05:24.363Z,3.22
2023-03-20T20:08:22.390Z,3.58
2023-03-20T20:10:45.190Z,3.15
2023-03-20T20:13:19.173Z,3.00
2023-03-20T20:15:48.989Z,3.42
2023-03-20T20:18:18.566Z,3.42
2023-03-20T20:21:37.582Z,3.25
2023-03-20T20:23:39.105Z,3.33
2023-03-20T20:26:10.434Z,3.58
2023-03-20T20:28:39.519Z,3.15
2023-03-20T20:31:08.545Z,3.30
2023-03-20T20:33:37.596Z,3.20
2023-03-20T20:39:06.503Z,3.50
2023-03-20T20:41:37.368Z,2.72
2023-03-20T20:44:16.225Z,2.85
2023-03-20T20:46:45.751Z,3.08
2023-03-20T20:49:19.411Z,3.08
2023-03-20T20:51:49.552Z,2.90
2023-03-20T20:54:18.556Z,2.90
2023-03-20T20:56:49.206Z,3.10
2023-03-20T20:59:18.418Z,2.90
2023-03-20T21:01:47.607Z,3.03
2023-03-20T21:04:16.758Z,2.97
2023-03-20T21:09:34.942Z,3.10
2023-03-20T21:12:06.568Z,2.83
2023-03-20T21:14:35.566Z,2.90
2023-03-20T21:17:04.847Z,2.60
2023-03-20T21:19:36.381Z,2.88
2023-03-20T21:22:05.753Z,3.00
2023-03-20T21:24:35.858Z,3.08
2023-03-20T21:27:11.841Z,3.00
2023-03-20T21:29:42.197Z,2.97
2023-03-20T21:32:12.780Z,2.97
2023-03-20T21:34:42.612Z,2.60
2023-03-20T21:40:01.124Z,2.47
2023-03-20T21:42:31.864Z,2.47
2023-03-20T21:48:30.063Z,2.60
2023-03-20T21:51:07.282Z,2.45
2023-03-20T22:02:10.526Z,2.30
2023-03-20T22:05:28.407Z,2.30
2023-03-20T22:08:03.392Z,2.50
2023-03-20T22:14:02.764Z,2.15
2023-03-20T22:22:16.924Z,2.13
2023-03-20T22:28:04.396Z,2.13
2023-03-20T22:33:54.828Z,2.40
2023-03-20T22:39:22.100Z,2.08
2023-03-20T22:42:18.438Z,1.90
2023-03-20T22:47:09.816Z,2.30
2023-03-20T22:49:40.588Z,2.10
2023-03-20T22:52:23.047Z,2.13
2023-03-20T22:54:59.521Z,2.10
2023-03-20T22:57:40.224Z,2.20
2023-03-20T23:00:12.521Z,2.03
2023-03-20T23:02:42.792Z,2.22
2023-03-20T23:05:13.904Z,2.00
2023-03-20T23:07:43.054Z,2.00
2023-03-20T23:10:14.120Z,2.30
2023-03-20T23:12:44.243Z,1.98
2023-03-20T23:15:13.618Z,2.00
2023-03-20T23:17:42.597Z,2.17
2023-03-20T23:20:18.821Z,2.03
2023-03-20T23:22:49.406Z,2.10
2023-03-20T23:25:35.977Z,1.80
2023-03-20T23:28:08.498Z,1.90
2023-03-20T23:30:46.795Z,1.92
2023-03-20T23:33:18.894Z,1.70
2023-03-20T23:35:51.204Z,2.05
2023-03-20T23:38:20.291Z,1.70
2023-03-20T23:40:52.836Z,1.90
2023-03-20T23:43:22.163Z,1.73
2023-03-20T23:45:51.719Z,1.80
2023-03-20T23:48:20.879Z,1.90
2023-03-20T23:50:53.560Z,2.10
2023-03-20T23:53:22.826Z,1.80
2023-03-20T23:55:54.120Z,1.80
2023-03-20T23:58:23.699Z,1.92
